Terminal Aerodrome Forecast
Issued by NWS

Home | Current Version | Previous Version | Text Only | Print | Product List | Glossary On
Versions: 1 2 3 4 5 6 7 8 9 10 11 12 13 14
633
FTPA31 PHFO 251740
TAFHJR
TAF
PHJR 251740Z 2518/2618 06004KT P6SM SKC
     FM252000 14009KT P6SM FEW035 SCT060
      TEMPO 2600/2604 VRB06G12KT
     FM260400 05004KT P6SM FEW035 SCT050=

USA.gov is the U.S. government's official web portal to all federal, state and local government web resources and services.